sensor_id;sensor_type;location;lat;lon;timestamp;pressure;altitude;pressure_sealevel;temperature;humidity
56944;BME280;42848;42.524;12.052;2023-07-31T00:00:46;96531.84;;;23.86;100.00
56944;BME280;42848;42.524;12.052;2023-07-31T00:03:12;96540.03;;;23.55;100.00
56944;BME280;42848;42.524;12.052;2023-07-31T00:05:38;96527.09;;;23.38;100.00
56944;BME280;42848;42.524;12.052;2023-07-31T00:08:03;96521.47;;;23.49;100.00
56944;BME280;42848;42.524;12.052;2023-07-31T00:10:29;96523.81;;;23.54;100.00
56944;BME280;42848;42.524;12.052;2023-07-31T00:12:54;96517.41;;;23.16;100.00
56944;BME280;42848;42.524;12.052;2023-07-31T00:15:20;96512.97;;;23.25;100.00
56944;BME280;42848;42.524;12.052;2023-07-31T00:17:46;96516.78;;;23.42;100.00
56944;BME280;42848;42.524;12.052;2023-07-31T00:20:12;96515.13;;;23.00;100.00
56944;BME280;42848;42.524;12.052;2023-07-31T00:22:37;96505.88;;;23.21;100.00
56944;BME280;42848;42.524;12.052;2023-07-31T00:25:03;96513.38;;;23.24;100.00
56944;BME280;42848;42.524;12.052;2023-07-31T00:27:32;96515.69;;;23.33;100.00
56944;BME280;42848;42.524;12.052;2023-07-31T00:29:57;96517.03;;;23.10;100.00
56944;BME280;42848;42.524;12.052;2023-07-31T00:32:23;96514.63;;;23.16;100.00
56944;BME280;42848;42.524;12.052;2023-07-31T00:34:49;96515.22;;;22.86;100.00
56944;BME280;42848;42.524;12.052;2023-07-31T00:37:14;96510.47;;;22.90;100.00
56944;BME280;42848;42.524;12.052;2023-07-31T00:39:40;96503.97;;;23.14;100.00
56944;BME280;42848;42.524;12.052;2023-07-31T00:42:06;96511.06;;;23.15;100.00
56944;BME280;42848;42.524;12.052;2023-07-31T00:44:32;96503.34;;;22.85;100.00
56944;BME280;42848;42.524;12.052;2023-07-31T00:46:58;96510.66;;;23.17;100.00
56944;BME280;42848;42.524;12.052;2023-07-31T00:49:25;96506.81;;;23.48;100.00
56944;BME280;42848;42.524;12.052;2023-07-31T00:51:51;96517.84;;;23.55;100.00
56944;BME280;42848;42.524;12.052;2023-07-31T00:54:17;96506.28;;;23.19;100.00
56944;BME280;42848;42.524;12.052;2023-07-31T00:56:45;96518.31;;;22.98;100.00
56944;BME280;42848;42.524;12.052;2023-07-31T00:59:11;96517.63;;;22.80;100.00
56944;BME280;42848;42.524;12.052;2023-07-31T01:01:40;96510.31;;;23.11;100.00
56944;BME280;42848;42.524;12.052;2023-07-31T01:04:07;96506.59;;;23.32;100.00
56944;BME280;42848;42.524;12.052;2023-07-31T01:06:40;96503.97;;;23.11;100.00
56944;BME280;42848;42.524;12.052;2023-07-31T01:12:15;96498.72;;;23.27;100.00
56944;BME280;42848;42.524;12.052;2023-07-31T01:17:28;96491.78;;;23.49;100.00
56944;BME280;42848;42.524;12.052;2023-07-31T01:19:55;96499.03;;;23.36;100.00
56944;BME280;42848;42.524;12.052;2023-07-31T01:28:18;96485.50;;;22.97;100.00
56944;BME280;42848;42.524;12.052;2023-07-31T01:30:48;96481.81;;;23.11;100.00
56944;BME280;42848;42.524;12.052;2023-07-31T01:33:16;96485.78;;;23.10;100.00
56944;BME280;42848;42.524;12.052;2023-07-31T01:35:44;96488.59;;;23.03;100.00
56944;BME280;42848;42.524;12.052;2023-07-31T01:38:11;96475.63;;;22.92;100.00
56944;BME280;42848;42.524;12.052;2023-07-31T01:40:37;96474.75;;;23.03;100.00
56944;BME280;42848;42.524;12.052;2023-07-31T01:43:03;96477.22;;;22.93;100.00
56944;BME280;42848;42.524;12.052;2023-07-31T01:45:28;96481.22;;;22.85;100.00
56944;BME280;42848;42.524;12.052;2023-07-31T01:47:54;96477.94;;;23.05;100.00
56944;BME280;42848;42.524;12.052;2023-07-31T01:50:19;96474.53;;;22.79;100.00
56944;BME280;42848;42.524;12.052;2023-07-31T01:52:45;96475.50;;;23.10;100.00
56944;BME280;42848;42.524;12.052;2023-07-31T01:55:11;96469.78;;;22.76;100.00
56944;BME280;42848;42.524;12.052;2023-07-31T01:57:37;96462.25;;;22.77;100.00
56944;BME280;42848;42.524;12.052;2023-07-31T02:00:03;96471.84;;;23.20;100.00
56944;BME280;42848;42.524;12.052;2023-07-31T02:02:29;96468.28;;;23.20;100.00
56944;BME280;42848;42.524;12.052;2023-07-31T02:04:55;96464.44;;;23.10;100.00
56944;BME280;42848;42.524;12.052;2023-07-31T02:07:20;96478.56;;;23.23;100.00
56944;BME280;42848;42.524;12.052;2023-07-31T02:09:46;96471.38;;;23.29;100.00
56944;BME280;42848;42.524;12.052;2023-07-31T02:12:13;96471.66;;;22.93;100.00
56944;BME280;42848;42.524;12.052;2023-07-31T02:14:40;96469.97;;;23.10;100.00
56944;BME280;42848;42.524;12.052;2023-07-31T02:17:06;96468.50;;;22.95;100.00
56944;BME280;42848;42.524;12.052;2023-07-31T02:19:32;96466.00;;;23.11;100.00
56944;BME280;42848;42.524;12.052;2023-07-31T02:21:57;96465.31;;;23.00;100.00
56944;BME280;42848;42.524;12.052;2023-07-31T02:24:24;96465.72;;;22.95;100.00
56944;BME280;42848;42.524;12.052;2023-07-31T02:26:49;96462.25;;;22.87;100.00
56944;BME280;42848;42.524;12.052;2023-07-31T02:29:15;96465.00;;;22.84;100.00
56944;BME280;42848;42.524;12.052;2023-07-31T02:31:40;96471.84;;;22.65;100.00
56944;BME280;42848;42.524;12.052;2023-07-31T02:34:06;96470.97;;;22.75;100.00
56944;BME280;42848;42.524;12.052;2023-07-31T02:36:32;96465.59;;;22.54;100.00
56944;BME280;42848;42.524;12.052;2023-07-31T02:38:57;96470.25;;;22.64;100.00
56944;BME280;42848;42.524;12.052;2023-07-31T02:41:23;96468.34;;;22.54;100.00
56944;BME280;42848;42.524;12.052;2023-07-31T02:43:48;96464.91;;;22.35;100.00
56944;BME280;42848;42.524;12.052;2023-07-31T02:46:14;96470.34;;;22.53;100.00
56944;BME280;42848;42.524;12.052;2023-07-31T02:48:40;96466.38;;;22.54;100.00
56944;BME280;42848;42.524;12.052;2023-07-31T02:51:05;96460.88;;;22.47;100.00
56944;BME280;42848;42.524;12.052;2023-07-31T02:53:31;96459.22;;;22.57;100.00
56944;BME280;42848;42.524;12.052;2023-07-31T02:55:56;96461.63;;;22.55;100.00
56944;BME280;42848;42.524;12.052;2023-07-31T02:58:22;96467.78;;;22.87;100.00
56944;BME280;42848;42.524;12.052;2023-07-31T03:00:47;96463.69;;;23.06;100.00
56944;BME280;42848;42.524;12.052;2023-07-31T03:03:13;96462.06;;;22.50;100.00
56944;BME280;42848;42.524;12.052;2023-07-31T03:05:38;96462.06;;;22.50;100.00
56944;BME280;42848;42.524;12.052;2023-07-31T03:08:04;96462.78;;;22.61;100.00
56944;BME280;42848;42.524;12.052;2023-07-31T03:10:30;96463.78;;;22.92;100.00
56944;BME280;42848;42.524;12.052;2023-07-31T03:12:55;96466.59;;;22.81;100.00
56944;BME280;42848;42.524;12.052;2023-07-31T03:15:21;96463.97;;;22.56;100.00
56944;BME280;42848;42.524;12.052;2023-07-31T03:17:46;96467.28;;;22.33;100.00
56944;BME280;42848;42.524;12.052;2023-07-31T03:20:12;96472.78;;;22.40;100.00
56944;BME280;42848;42.524;12.052;2023-07-31T03:22:38;96470.41;;;22.39;100.00
56944;BME280;42848;42.524;12.052;2023-07-31T03:25:04;96469.63;;;22.38;100.00
56944;BME280;42848;42.524;12.052;2023-07-31T03:27:30;96479.56;;;22.25;100.00
56944;BME280;42848;42.524;12.052;2023-07-31T03:29:55;96478.31;;;22.40;100.00
56944;BME280;42848;42.524;12.052;2023-07-31T03:32:21;96473.19;;;22.35;100.00
56944;BME280;42848;42.524;12.052;2023-07-31T03:34:47;96459.00;;;22.33;100.00
56944;BME280;42848;42.524;12.052;2023-07-31T03:37:12;96469.44;;;22.70;100.00
56944;BME280;42848;42.524;12.052;2023-07-31T03:39:38;96463.16;;;22.63;100.00
56944;BME280;42848;42.524;12.052;2023-07-31T03:42:04;96473.38;;;22.73;100.00
56944;BME280;42848;42.524;12.052;2023-07-31T03:44:29;96475.03;;;22.60;100.00
56944;BME280;42848;42.524;12.052;2023-07-31T03:46:55;96473.47;;;22.55;100.00
56944;BME280;42848;42.524;12.052;2023-07-31T03:49:21;96461.69;;;22.44;100.00
56944;BME280;42848;42.524;12.052;2023-07-31T03:51:46;96463.97;;;22.56;100.00
56944;BME280;42848;42.524;12.052;2023-07-31T03:54:12;96466.19;;;22.83;100.00
56944;BME280;42848;42.524;12.052;2023-07-31T03:56:38;96469.09;;;22.58;100.00
56944;BME280;42848;42.524;12.052;2023-07-31T03:59:04;96476.72;;;22.43;100.00
56944;BME280;42848;42.524;12.052;2023-07-31T04:01:29;96476.72;;;22.39;100.00
56944;BME280;42848;42.524;12.052;2023-07-31T04:03:55;96480.66;;;22.46;100.00
56944;BME280;42848;42.524;12.052;2023-07-31T04:06:21;96486.91;;;22.57;100.00
56944;BME280;42848;42.524;12.052;2023-07-31T04:08:46;96476.72;;;22.39;100.00
56944;BME280;42848;42.524;12.052;2023-07-31T04:11:12;96485.28;;;22.63;100.00
56944;BME280;42848;42.524;12.052;2023-07-31T04:13:38;96477.47;;;22.47;100.00
56944;BME280;42848;42.524;12.052;2023-07-31T04:16:04;96479.69;;;22.77;100.00
56944;BME280;42848;42.524;12.052;2023-07-31T04:18:30;96486.88;;;22.64;100.00
56944;BME280;42848;42.524;12.052;2023-07-31T04:20:58;96485.66;;;22.65;100.00
56944;BME280;42848;42.524;12.052;2023-07-31T04:23:24;96482.94;;;22.61;100.00
56944;BME280;42848;42.524;12.052;2023-07-31T04:25:50;96479.91;;;22.41;100.00
56944;BME280;42848;42.524;12.052;2023-07-31T04:28:16;96477.66;;;22.15;100.00
56944;BME280;42848;42.524;12.052;2023-07-31T04:30:42;96481.66;;;22.73;100.00
56944;BME280;42848;42.524;12.052;2023-07-31T04:33:07;96480.19;;;22.58;100.00
56944;BME280;42848;42.524;12.052;2023-07-31T04:35:33;96468.81;;;22.41;100.00
56944;BME280;42848;42.524;12.052;2023-07-31T04:37:59;96471.28;;;22.25;100.00
56944;BME280;42848;42.524;12.052;2023-07-31T04:40:24;96470.44;;;22.35;100.00
56944;BME280;42848;42.524;12.052;2023-07-31T04:42:50;96467.28;;;22.33;100.00
56944;BME280;42848;42.524;12.052;2023-07-31T04:45:15;96459.84;;;22.20;100.00
56944;BME280;42848;42.524;12.052;2023-07-31T04:47:41;96465.00;;;22.14;100.00
56944;BME280;42848;42.524;12.052;2023-07-31T04:50:07;96463.38;;;22.20;100.00
56944;BME280;42848;42.524;12.052;2023-07-31T04:52:33;96457.03;;;22.27;100.00
56944;BME280;42848;42.524;12.052;2023-07-31T04:54:58;96457.09;;;22.16;100.00
56944;BME280;42848;42.524;12.052;2023-07-31T04:57:24;96451.47;;;22.30;100.00
56944;BME280;42848;42.524;12.052;2023-07-31T04:59:50;96459.75;;;22.41;100.00
56944;BME280;42848;42.524;12.052;2023-07-31T05:02:15;96454.09;;;22.59;100.00
56944;BME280;42848;42.524;12.052;2023-07-31T05:04:41;96450.63;;;22.44;100.00
56944;BME280;42848;42.524;12.052;2023-07-31T05:07:06;96452.50;;;22.58;100.00
56944;BME280;42848;42.524;12.052;2023-07-31T05:09:32;96455.38;;;22.40;100.00
56944;BME280;42848;42.524;12.052;2023-07-31T05:11:58;96451.38;;;22.52;100.00
56944;BME280;42848;42.524;12.052;2023-07-31T05:14:24;96458.34;;;22.74;100.00
56944;BME280;42848;42.524;12.052;2023-07-31T05:16:49;96457.81;;;22.93;100.00
56944;BME280;42848;42.524;12.052;2023-07-31T05:19:15;96448.00;;;22.82;100.00
56944;BME280;42848;42.524;12.052;2023-07-31T05:21:40;96451.19;;;22.77;100.00
56944;BME280;42848;42.524;12.052;2023-07-31T05:24:06;96448.09;;;22.67;100.00
56944;BME280;42848;42.524;12.052;2023-07-31T05:26:31;96448.47;;;22.73;100.00
56944;BME280;42848;42.524;12.052;2023-07-31T05:28:57;96461.72;;;23.03;100.00
56944;BME280;42848;42.524;12.052;2023-07-31T05:31:23;96449.66;;;22.72;100.00
56944;BME280;42848;42.524;12.052;2023-07-31T05:33:50;96454.44;;;22.68;100.00
56944;BME280;42848;42.524;12.052;2023-07-31T05:36:16;96452.47;;;22.65;100.00
56944;BME280;42848;42.524;12.052;2023-07-31T05:38:42;96454.44;;;22.68;100.00
56944;BME280;42848;42.524;12.052;2023-07-31T05:41:13;96457.91;;;22.79;100.00
56944;BME280;42848;42.524;12.052;2023-07-31T05:43:39;96458.66;;;22.90;100.00
56944;BME280;42848;42.524;12.052;2023-07-31T05:46:04;96464.66;;;22.78;100.00
56944;BME280;42848;42.524;12.052;2023-07-31T05:48:32;96468.56;;;22.81;100.00
56944;BME280;42848;42.524;12.052;2023-07-31T05:50:59;96461.44;;;22.83;100.00
56944;BME280;42848;42.524;12.052;2023-07-31T05:53:25;96468.16;;;22.89;100.00
56944;BME280;42848;42.524;12.052;2023-07-31T05:55:50;96455.16;;;22.76;100.00
56944;BME280;42848;42.524;12.052;2023-07-31T05:58:16;96466.22;;;22.76;100.00
56944;BME280;42848;42.524;12.052;2023-07-31T06:00:41;96464.69;;;22.67;100.00
56944;BME280;42848;42.524;12.052;2023-07-31T06:03:07;96458.28;;;22.88;100.00
56944;BME280;42848;42.524;12.052;2023-07-31T06:05:33;96461.38;;;22.97;100.00
56944;BME280;42848;42.524;12.052;2023-07-31T06:07:58;96465.34;;;22.96;100.00
56944;BME280;42848;42.524;12.052;2023-07-31T06:10:24;96462.16;;;22.94;100.00
56944;BME280;42848;42.524;12.052;2023-07-31T06:12:50;96459.03;;;22.92;100.00
56944;BME280;42848;42.524;12.052;2023-07-31T06:15:15;96454.59;;;23.06;100.00
56944;BME280;42848;42.524;12.052;2023-07-31T06:17:41;96458.94;;;23.07;100.00
56944;BME280;42848;42.524;12.052;2023-07-31T06:20:08;96453.34;;;23.10;100.00
56944;BME280;42848;42.524;12.052;2023-07-31T06:22:33;96462.84;;;23.09;100.00
56944;BME280;42848;42.524;12.052;2023-07-31T06:24:59;96455.72;;;23.12;100.00
56944;BME280;42848;42.524;12.052;2023-07-31T06:27:25;96461.13;;;23.26;100.00
56944;BME280;42848;42.524;12.052;2023-07-31T06:29:50;96471.44;;;23.22;100.00
56944;BME280;42848;42.524;12.052;2023-07-31T06:32:16;96457.16;;;23.27;100.00
56944;BME280;42848;42.524;12.052;2023-07-31T06:34:41;96456.75;;;23.32;100.00
56944;BME280;42848;42.524;12.052;2023-07-31T06:37:07;96470.06;;;23.44;100.00
56944;BME280;42848;42.524;12.052;2023-07-31T06:39:33;96465.66;;;23.50;100.00
56944;BME280;42848;42.524;12.052;2023-07-31T06:41:58;96471.53;;;23.56;100.00
56944;BME280;42848;42.524;12.052;2023-07-31T06:44:24;96472.72;;;23.55;100.00
56944;BME280;42848;42.524;12.052;2023-07-31T06:46:50;96466.78;;;23.56;100.00
56944;BME280;42848;42.524;12.052;2023-07-31T06:49:16;96461.59;;;23.59;100.00
56944;BME280;42848;42.524;12.052;2023-07-31T06:51:42;96463.59;;;23.58;100.00
56944;BME280;42848;42.524;12.052;2023-07-31T06:54:08;96471.06;;;23.68;100.00
56944;BME280;42848;42.524;12.052;2023-07-31T06:56:34;96472.63;;;23.69;100.00
56944;BME280;42848;42.524;12.052;2023-07-31T06:58:59;96487.56;;;23.79;100.00
56944;BME280;42848;42.524;12.052;2023-07-31T07:01:25;96481.97;;;23.82;100.00
56944;BME280;42848;42.524;12.052;2023-07-31T07:03:51;96477.09;;;23.94;100.00
56944;BME280;42848;42.524;12.052;2023-07-31T07:06:20;96478.19;;;24.03;100.00
56944;BME280;42848;42.524;12.052;2023-07-31T07:08:45;96487.34;;;24.00;100.00
56944;BME280;42848;42.524;12.052;2023-07-31T07:11:11;96489.66;;;24.05;100.00
56944;BME280;42848;42.524;12.052;2023-07-31T07:13:36;96484.00;;;24.12;100.00
56944;BME280;42848;42.524;12.052;2023-07-31T07:16:02;96493.75;;;24.28;100.00
56944;BME280;42848;42.524;12.052;2023-07-31T07:18:28;96490.06;;;24.38;100.00
56944;BME280;42848;42.524;12.052;2023-07-31T07:20:54;96490.91;;;24.35;100.00
56944;BME280;42848;42.524;12.052;2023-07-31T07:23:22;96486.47;;;24.41;100.00
56944;BME280;42848;42.524;12.052;2023-07-31T07:25:47;96491.47;;;24.53;100.00
56944;BME280;42848;42.524;12.052;2023-07-31T07:28:13;96497.84;;;24.50;100.00
56944;BME280;42848;42.524;12.052;2023-07-31T07:30:39;96488.59;;;24.60;100.00
56944;BME280;42848;42.524;12.052;2023-07-31T07:33:05;96485.44;;;24.58;100.00
56944;BME280;42848;42.524;12.052;2023-07-31T07:35:35;96490.00;;;24.72;100.00
56944;BME280;42848;42.524;12.052;2023-07-31T07:38:03;96487.81;;;24.60;100.00
56944;BME280;42848;42.524;12.052;2023-07-31T07:40:29;96491.53;;;24.77;100.00
56944;BME280;42848;42.524;12.052;2023-07-31T07:42:54;96483.84;;;24.88;100.00
56944;BME280;42848;42.524;12.052;2023-07-31T07:45:20;96485.41;;;24.89;100.00
56944;BME280;42848;42.524;12.052;2023-07-31T07:47:46;96494.75;;;25.02;100.00
56944;BME280;42848;42.524;12.052;2023-07-31T07:50:11;96480.25;;;25.14;100.00
56944;BME280;42848;42.524;12.052;2023-07-31T07:52:37;96485.97;;;25.07;100.00
56944;BME280;42848;42.524;12.052;2023-07-31T07:55:03;96485.78;;;25.18;100.00
56944;BME280;42848;42.524;12.052;2023-07-31T07:57:35;96483.44;;;25.16;99.72
56944;BME280;42848;42.524;12.052;2023-07-31T08:00:00;96484.75;;;25.32;100.00
56944;BME280;42848;42.524;12.052;2023-07-31T08:02:26;96481.00;;;25.42;98.31
56944;BME280;42848;42.524;12.052;2023-07-31T08:04:51;96481.97;;;25.32;100.00
56944;BME280;42848;42.524;12.052;2023-07-31T08:07:17;96482.28;;;25.37;98.83
56944;BME280;42848;42.524;12.052;2023-07-31T08:09:42;96473.88;;;25.41;99.38
56944;BME280;42848;42.524;12.052;2023-07-31T08:12:08;96482.75;;;25.56;99.42
56944;BME280;42848;42.524;12.052;2023-07-31T08:14:34;96475.81;;;25.44;96.71
56944;BME280;42848;42.524;12.052;2023-07-31T08:17:00;96480.47;;;25.50;96.67
56944;BME280;42848;42.524;12.052;2023-07-31T08:19:26;96470.06;;;25.55;97.75
56944;BME280;42848;42.524;12.052;2023-07-31T08:21:51;96466.75;;;25.63;95.98
56944;BME280;42848;42.524;12.052;2023-07-31T08:24:17;96467.50;;;25.44;95.45
56944;BME280;42848;42.524;12.052;2023-07-31T08:26:42;96470.13;;;25.51;96.07
56944;BME280;42848;42.524;12.052;2023-07-31T08:29:08;96463.09;;;25.66;95.96
56944;BME280;42848;42.524;12.052;2023-07-31T08:31:34;96474.22;;;25.66;96.83
56944;BME280;42848;42.524;12.052;2023-07-31T08:34:00;96479.19;;;25.78;94.14
56944;BME280;42848;42.524;12.052;2023-07-31T08:36:26;96478.28;;;25.85;95.93
56944;BME280;42848;42.524;12.052;2023-07-31T08:38:52;96469.16;;;25.85;95.43
56944;BME280;42848;42.524;12.052;2023-07-31T08:41:18;96479.19;;;25.78;92.21
56944;BME280;42848;42.524;12.052;2023-07-31T08:43:45;96475.00;;;25.90;92.64
56944;BME280;42848;42.524;12.052;2023-07-31T08:46:12;96483.50;;;26.03;92.83
56944;BME280;42848;42.524;12.052;2023-07-31T08:48:43;96481.16;;;26.01;93.16
56944;BME280;42848;42.524;12.052;2023-07-31T08:51:09;96491.50;;;26.01;90.92
56944;BME280;42848;42.524;12.052;2023-07-31T08:53:35;96484.16;;;26.11;89.43
56944;BME280;42848;42.524;12.052;2023-07-31T08:56:01;96477.00;;;26.29;90.70
56944;BME280;42848;42.524;12.052;2023-07-31T08:58:31;96479.44;;;26.27;89.33
56944;BME280;42848;42.524;12.052;2023-07-31T09:00:58;96480.38;;;26.41;90.94
56944;BME280;42848;42.524;12.052;2023-07-31T09:03:26;96475.69;;;26.38;88.11
56944;BME280;42848;42.524;12.052;2023-07-31T09:05:53;96479.66;;;26.36;90.03
56944;BME280;42848;42.524;12.052;2023-07-31T09:08:21;96474.75;;;26.44;88.51
56944;BME280;42848;42.524;12.052;2023-07-31T09:10:48;96476.56;;;26.71;95.74
56944;BME280;42848;42.524;12.052;2023-07-31T09:13:17;96479.16;;;26.61;87.46
56944;BME280;42848;42.524;12.052;2023-07-31T09:15:44;96475.94;;;26.63;87.68
56944;BME280;42848;42.524;12.052;2023-07-31T09:18:11;96477.41;;;26.68;90.77
56944;BME280;42848;42.524;12.052;2023-07-31T09:20:38;96478.97;;;27.05;89.53
56944;BME280;42848;42.524;12.052;2023-07-31T09:23:14;96473.78;;;26.87;85.84
56944;BME280;42848;42.524;12.052;2023-07-31T09:25:43;96476.16;;;26.88;77.23
56944;BME280;42848;42.524;12.052;2023-07-31T09:28:11;96477.16;;;26.78;79.07
56944;BME280;42848;42.524;12.052;2023-07-31T09:30:50;96479.59;;;26.76;81.90
56944;BME280;42848;42.524;12.052;2023-07-31T09:33:18;96474.75;;;26.80;82.84
56944;BME280;42848;42.524;12.052;2023-07-31T09:35:44;96471.44;;;26.85;83.00
56944;BME280;42848;42.524;12.052;2023-07-31T09:38:12;96470.16;;;27.06;85.19
56944;BME280;42848;42.524;12.052;2023-07-31T09:40:43;96463.66;;;27.13;86.63
56944;BME280;42848;42.524;12.052;2023-07-31T09:43:11;96461.75;;;27.26;84.34
56944;BME280;42848;42.524;12.052;2023-07-31T09:45:39;96459.63;;;27.14;80.83
56944;BME280;42848;42.524;12.052;2023-07-31T09:50:40;96454.78;;;27.18;83.16
56944;BME280;42848;42.524;12.052;2023-07-31T09:53:07;96462.19;;;27.08;81.92
56944;BME280;42848;42.524;12.052;2023-07-31T09:55:34;96470.72;;;27.17;76.97
56944;BME280;42848;42.524;12.052;2023-07-31T09:58:04;96473.69;;;27.27;76.69
56944;BME280;42848;42.524;12.052;2023-07-31T10:00:30;96482.47;;;27.25;78.76
56944;BME280;42848;42.524;12.052;2023-07-31T10:02:59;96477.31;;;27.24;77.52
56944;BME280;42848;42.524;12.052;2023-07-31T10:05:36;96481.50;;;27.32;78.01
56944;BME280;42848;42.524;12.052;2023-07-31T10:08:03;96472.19;;;27.22;74.37
56944;BME280;42848;42.524;12.052;2023-07-31T10:10:31;96477.41;;;27.36;73.39
56944;BME280;42848;42.524;12.052;2023-07-31T10:12:59;96463.47;;;27.36;69.65
56944;BME280;42848;42.524;12.052;2023-07-31T10:15:26;96472.53;;;27.40;65.09
56944;BME280;42848;42.524;12.052;2023-07-31T10:17:54;96468.09;;;27.27;66.02
56944;BME280;42848;42.524;12.052;2023-07-31T10:20:20;96464.16;;;27.40;65.97
56944;BME280;42848;42.524;12.052;2023-07-31T10:22:46;96462.59;;;27.56;57.06
56944;BME280;42848;42.524;12.052;2023-07-31T10:25:13;96463.81;;;27.38;57.90
56944;BME280;42848;42.524;12.052;2023-07-31T10:27:41;96458.06;;;27.45;62.70
56944;BME280;42848;42.524;12.052;2023-07-31T10:30:17;96457.88;;;27.53;58.08
56944;BME280;42848;42.524;12.052;2023-07-31T10:32:45;96463.03;;;27.38;53.03
56944;BME280;42848;42.524;12.052;2023-07-31T10:35:11;96457.19;;;27.32;49.80
56944;BME280;42848;42.524;12.052;2023-07-31T10:37:42;96447.59;;;27.49;51.60
56944;BME280;42848;42.524;12.052;2023-07-31T10:40:16;96450.31;;;27.37;41.57
56944;BME280;42848;42.524;12.052;2023-07-31T10:42:54;96448.31;;;27.54;47.47
56944;BME280;42848;42.524;12.052;2023-07-31T10:45:34;96453.59;;;27.64;54.00
56944;BME280;42848;42.524;12.052;2023-07-31T10:48:15;96445.16;;;27.68;54.58
56944;BME280;42848;42.524;12.052;2023-07-31T10:50:49;96437.38;;;27.75;45.32
56944;BME280;42848;42.524;12.052;2023-07-31T10:53:31;96439.06;;;27.73;43.13
56944;BME280;42848;42.524;12.052;2023-07-31T10:56:02;96439.53;;;27.84;44.67
56944;BME280;42848;42.524;12.052;2023-07-31T10:58:29;96437.03;;;27.73;42.46
56944;BME280;42848;42.524;12.052;2023-07-31T11:01:02;96443.06;;;27.72;40.20
56944;BME280;42848;42.524;12.052;2023-07-31T11:03:50;96440.63;;;27.74;44.15
56944;BME280;42848;42.524;12.052;2023-07-31T11:06:18;96439.84;;;28.15;46.76
56944;BME280;42848;42.524;12.052;2023-07-31T11:08:46;96439.16;;;27.98;45.67
56944;BME280;42848;42.524;12.052;2023-07-31T11:11:14;96433.81;;;27.75;43.35
56944;BME280;42848;42.524;12.052;2023-07-31T11:13:45;96432.69;;;27.72;48.99
56944;BME280;42848;42.524;12.052;2023-07-31T11:16:12;96438.16;;;27.76;52.66
56944;BME280;42848;42.524;12.052;2023-07-31T11:18:42;96432.97;;;27.91;54.97
56944;BME280;42848;42.524;12.052;2023-07-31T11:21:24;96433.31;;;27.93;55.61
56944;BME280;42848;42.524;12.052;2023-07-31T11:23:52;96437.03;;;28.02;55.66
56944;BME280;42848;42.524;12.052;2023-07-31T11:26:18;96434.72;;;28.14;54.56
56944;BME280;42848;42.524;12.052;2023-07-31T11:28:47;96434.91;;;28.06;58.24
56944;BME280;42848;42.524;12.052;2023-07-31T11:31:14;96429.31;;;28.06;60.53
56944;BME280;42848;42.524;12.052;2023-07-31T11:33:39;96424.44;;;28.11;61.48
56944;BME280;42848;42.524;12.052;2023-07-31T11:36:05;96433.78;;;28.33;64.09
56944;BME280;42848;42.524;12.052;2023-07-31T11:38:32;96428.25;;;28.17;62.02
56944;BME280;42848;42.524;12.052;2023-07-31T11:41:00;96418.53;;;28.09;59.75
56944;BME280;42848;42.524;12.052;2023-07-31T11:43:28;96419.53;;;28.15;61.33
56944;BME280;42848;42.524;12.052;2023-07-31T11:45:56;96416.41;;;28.13;62.49
56944;BME280;42848;42.524;12.052;2023-07-31T11:50:51;96406.22;;;28.48;59.15
56944;BME280;42848;42.524;12.052;2023-07-31T11:53:20;96406.31;;;28.31;60.68
56944;BME280;42848;42.524;12.052;2023-07-31T11:55:46;96406.88;;;28.39;62.60
56944;BME280;42848;42.524;12.052;2023-07-31T11:58:13;96402.44;;;28.54;60.29
56944;BME280;42848;42.524;12.052;2023-07-31T12:00:40;96399.03;;;28.34;61.45
56944;BME280;42848;42.524;12.052;2023-07-31T12:03:07;96389.34;;;28.51;57.55
56944;BME280;42848;42.524;12.052;2023-07-31T12:05:32;96393.03;;;28.74;57.39
56944;BME280;42848;42.524;12.052;2023-07-31T12:07:58;96397.63;;;28.68;60.49
56944;BME280;42848;42.524;12.052;2023-07-31T12:15:32;96385.44;;;29.00;55.57
56944;BME280;42848;42.524;12.052;2023-07-31T12:17:58;96381.53;;;28.72;54.70
56944;BME280;42848;42.524;12.052;2023-07-31T12:20:24;96380.88;;;28.93;56.55
56944;BME280;42848;42.524;12.052;2023-07-31T12:22:50;96390.69;;;28.72;56.32
56944;BME280;42848;42.524;12.052;2023-07-31T12:25:16;96380.75;;;28.84;56.27
56944;BME280;42848;42.524;12.052;2023-07-31T12:27:44;96373.81;;;29.01;57.77
56944;BME280;42848;42.524;12.052;2023-07-31T12:30:27;96387.56;;;28.96;56.82
56944;BME280;42848;42.524;12.052;2023-07-31T12:32:54;96374.09;;;29.16;52.18
56944;BME280;42848;42.524;12.052;2023-07-31T12:35:19;96377.69;;;29.16;52.74
56944;BME280;42848;42.524;12.052;2023-07-31T12:37:45;96374.16;;;29.38;53.55
56944;BME280;42848;42.524;12.052;2023-07-31T12:40:11;96373.19;;;29.66;55.62
56944;BME280;42848;42.524;12.052;2023-07-31T12:42:36;96372.91;;;29.52;53.74
56944;BME280;42848;42.524;12.052;2023-07-31T12:45:02;96363.09;;;29.34;52.13
56944;BME280;42848;42.524;12.052;2023-07-31T12:47:29;96363.91;;;29.22;52.25
56944;BME280;42848;42.524;12.052;2023-07-31T12:49:55;96361.06;;;29.35;53.84
56944;BME280;42848;42.524;12.052;2023-07-31T12:52:21;96358.22;;;29.60;52.98
56944;BME280;42848;42.524;12.052;2023-07-31T12:54:46;96362.31;;;29.68;49.61
56944;BME280;42848;42.524;12.052;2023-07-31T12:57:12;96355.16;;;29.67;51.63
56944;BME280;42848;42.524;12.052;2023-07-31T12:59:39;96351.72;;;29.63;54.16
56944;BME280;42848;42.524;12.052;2023-07-31T13:02:05;96353.53;;;30.01;51.99